createdAt,value
2023-02-27T00:00:37.714Z,2.65
2023-02-27T00:06:24.645Z,2.83
2023-02-27T00:12:12.276Z,2.82
2023-02-27T00:18:00.497Z,2.95
2023-02-27T00:23:47.383Z,2.81
2023-02-27T00:29:34.225Z,2.74
2023-02-27T00:35:21.717Z,2.73
2023-02-27T00:41:08.431Z,2.48
2023-02-27T00:46:55.468Z,2.64
2023-02-27T00:52:42.207Z,2.55
2023-02-27T00:58:29.018Z,2.61
2023-02-27T01:04:17.280Z,2.61
2023-02-27T01:10:08.781Z,2.40
2023-02-27T01:15:58.090Z,2.35
2023-02-27T01:21:45.187Z,2.50
2023-02-27T01:27:32.207Z,2.34
2023-02-27T01:33:18.912Z,2.20
2023-02-27T01:39:05.839Z,2.35
2023-02-27T01:45:09.314Z,2.37
2023-02-27T01:51:04.228Z,2.42
2023-02-27T01:56:52.210Z,2.44
2023-02-27T02:02:42.240Z,2.49
2023-02-27T02:08:32.826Z,2.63
2023-02-27T02:14:19.636Z,2.61
2023-02-27T02:20:18.750Z,2.55
2023-02-27T02:26:14.697Z,2.58
2023-02-27T02:32:19.499Z,2.46
2023-02-27T02:38:06.429Z,2.04
2023-02-27T02:44:12.465Z,1.96
2023-02-27T02:50:12.603Z,2.27
2023-02-27T02:56:17.460Z,2.24
2023-02-27T03:02:08.160Z,2.12
2023-02-27T03:08:02.221Z,2.06
2023-02-27T03:14:13.491Z,1.91
2023-02-27T03:20:06.962Z,2.03
2023-02-27T03:25:54.017Z,1.86
2023-02-27T03:31:46.172Z,1.95
2023-02-27T03:37:51.518Z,1.77
2023-02-27T03:44:01.214Z,1.53
2023-02-27T03:49:51.199Z,1.49
2023-02-27T03:55:43.974Z,1.45
2023-02-27T04:01:31.190Z,1.50
2023-02-27T04:07:41.330Z,1.35
2023-02-27T04:13:48.328Z,1.27
2023-02-27T04:20:05.564Z,1.16
2023-02-27T04:25:55.495Z,1.11
2023-02-27T04:31:51.574Z,1.24
2023-02-27T04:37:50.598Z,1.37
2023-02-27T04:43:39.601Z,1.14
2023-02-27T04:49:34.939Z,1.09
2023-02-27T04:55:27.253Z,1.04
2023-02-27T05:01:19.878Z,1.13
2023-02-27T05:07:09.590Z,1.07
2023-02-27T05:13:32.211Z,1.05
2023-02-27T05:19:20.872Z,1.09
2023-02-27T05:25:10.942Z,0.90
2023-02-27T05:31:07.653Z,1.14
2023-02-27T05:37:03.130Z,0.99
2023-02-27T05:43:04.190Z,0.89
2023-02-27T05:48:56.709Z,0.83
2023-02-27T05:55:06.125Z,0.64
2023-02-27T06:00:55.780Z,0.78
2023-02-27T06:06:44.466Z,0.87
2023-02-27T06:12:31.190Z,0.73
2023-02-27T06:18:18.638Z,0.68
2023-02-27T06:24:05.861Z,0.55
2023-02-27T06:29:55.198Z,0.64
2023-02-27T06:35:41.951Z,0.79
2023-02-27T06:41:29.269Z,0.94
2023-02-27T06:47:16.079Z,0.77
2023-02-27T06:53:06.973Z,0.71
2023-02-27T06:58:53.715Z,0.64
2023-02-27T07:04:43.748Z,0.82
2023-02-27T07:10:33.375Z,0.96
2023-02-27T07:16:20.249Z,1.72
2023-02-27T07:22:09.372Z,2.61
2023-02-27T07:27:56.247Z,3.70
2023-02-27T07:33:43.124Z,5.00
2023-02-27T07:39:30.035Z,5.54
2023-02-27T07:45:20.215Z,6.04
2023-02-27T07:51:07.440Z,6.43
2023-02-27T07:56:54.236Z,6.63
2023-02-27T08:02:50.667Z,6.96
2023-02-27T08:16:39.042Z,7.65
2023-02-27T08:22:33.823Z,7.71
2023-02-27T08:28:20.847Z,7.52
2023-02-27T08:34:11.160Z,7.60
2023-02-27T08:40:00.957Z,7.94
2023-02-27T08:45:49.787Z,7.95
2023-02-27T08:51:37.572Z,7.75
2023-02-27T09:03:28.955Z,6.68
2023-02-27T09:09:16.374Z,5.93
2023-02-27T09:15:06.621Z,6.04
2023-02-27T09:21:57.810Z,6.05
2023-02-27T09:28:02.814Z,5.91
2023-02-27T09:33:51.017Z,5.97
2023-02-27T09:39:38.154Z,6.39
2023-02-27T09:45:31.004Z,6.48
2023-02-27T09:51:23.015Z,6.46
2023-02-27T09:57:21.423Z,6.84
2023-02-27T10:03:23.564Z,7.20
2023-02-27T10:09:34.287Z,6.91
2023-02-27T10:28:41.603Z,6.97
2023-02-27T10:34:33.872Z,7.10
2023-02-27T10:40:25.278Z,7.33
2023-02-27T10:46:45.958Z,7.44
2023-02-27T10:52:49.452Z,7.75
2023-02-27T10:58:48.401Z,8.40
2023-02-27T11:05:06.980Z,8.18
2023-02-27T11:11:17.128Z,8.03
2023-02-27T11:40:54.333Z,7.96
2023-02-27T11:46:48.113Z,7.96
2023-02-27T12:00:07.242Z,7.55
2023-02-27T12:06:17.496Z,7.44
2023-02-27T12:12:20.120Z,7.57
2023-02-27T12:19:08.376Z,7.67
2023-02-27T12:25:08.072Z,7.69
2023-02-27T12:31:04.435Z,7.48
2023-02-27T12:36:53.131Z,7.57
2023-02-27T12:43:12.597Z,7.74
2023-02-27T12:49:22.777Z,7.83
2023-02-27T12:55:42.248Z,7.77
2023-02-27T13:09:16.790Z,8.64
2023-02-27T13:15:15.255Z,8.16
2023-02-27T13:21:23.966Z,7.95
2023-02-27T13:27:25.542Z,8.23
2023-02-27T13:33:35.552Z,8.13
2023-02-27T13:39:47.744Z,8.18
2023-02-27T13:45:56.992Z,8.14
2023-02-27T13:51:56.676Z,7.83
2023-02-27T13:57:52.840Z,8.28
2023-02-27T14:03:48.310Z,8.21
2023-02-27T14:09:53.770Z,8.46
2023-02-27T14:15:53.290Z,8.23
2023-02-27T14:22:12.301Z,8.18
2023-02-27T14:28:01.162Z,8.30
2023-02-27T14:33:55.379Z,8.45
2023-02-27T14:39:47.283Z,8.19
2023-02-27T14:45:34.331Z,8.18
2023-02-27T14:58:25.200Z,7.95
2023-02-27T15:04:20.431Z,7.95
2023-02-27T15:10:10.235Z,8.12
2023-02-27T15:16:22.988Z,8.11
2023-02-27T15:22:37.541Z,8.15
2023-02-27T15:28:37.632Z,8.22
2023-02-27T15:34:26.293Z,8.17
2023-02-27T15:40:20.888Z,8.10
2023-02-27T15:46:09.408Z,8.02
2023-02-27T15:52:24.151Z,7.96
2023-02-27T15:58:24.575Z,7.85
2023-02-27T16:04:28.474Z,7.81
2023-02-27T16:10:42.248Z,7.84
2023-02-27T16:16:38.989Z,7.95
2023-02-27T16:22:33.980Z,7.68
2023-02-27T16:28:21.610Z,7.68
2023-02-27T16:34:35.545Z,7.76
2023-02-27T16:40:34.284Z,7.73
2023-02-27T16:46:22.021Z,7.54
2023-02-27T16:52:21.402Z,7.53
2023-02-27T16:58:19.756Z,7.40
2023-02-27T17:04:13.537Z,7.37
2023-02-27T17:10:06.899Z,7.24
2023-02-27T17:15:53.884Z,7.05
2023-02-27T17:21:41.332Z,6.96
2023-02-27T17:27:29.908Z,6.90
2023-02-27T17:33:17.039Z,6.96
2023-02-27T17:39:07.868Z,6.85
2023-02-27T17:44:54.690Z,6.53
2023-02-27T17:50:42.045Z,6.43
2023-02-27T17:56:30.437Z,6.46
2023-02-27T18:02:17.514Z,6.36
2023-02-27T18:08:04.334Z,6.27
2023-02-27T18:13:51.348Z,6.37
2023-02-27T18:19:39.980Z,6.35
2023-02-27T18:25:28.022Z,6.14
2023-02-27T18:31:23.132Z,6.01
2023-02-27T18:37:11.136Z,5.96
2023-02-27T18:42:58.482Z,5.96
2023-02-27T18:48:45.903Z,5.91
2023-02-27T18:54:32.693Z,5.96
2023-02-27T19:00:21.768Z,5.89
2023-02-27T19:06:08.621Z,5.89
2023-02-27T19:11:55.436Z,5.89
2023-02-27T19:17:42.999Z,5.82
2023-02-27T19:23:30.394Z,5.74
2023-02-27T19:29:17.282Z,5.77
2023-02-27T19:35:04.944Z,5.68
2023-02-27T19:40:51.976Z,5.65
2023-02-27T19:46:40.937Z,5.59
2023-02-27T19:52:28.014Z,5.46
2023-02-27T19:58:14.903Z,5.55
2023-02-27T20:04:02.685Z,5.71
2023-02-27T20:09:49.856Z,5.70
2023-02-27T20:15:36.610Z,5.60
2023-02-27T20:21:24.543Z,5.60
2023-02-27T20:27:11.792Z,5.59
2023-02-27T20:33:21.513Z,5.70
2023-02-27T20:39:11.792Z,5.68
2023-02-27T20:44:58.816Z,5.68
2023-02-27T20:50:46.650Z,5.66
2023-02-27T20:56:41.197Z,5.64
2023-02-27T21:02:29.245Z,5.55
2023-02-27T21:08:16.910Z,5.60
2023-02-27T21:14:09.207Z,5.65
2023-02-27T21:19:56.098Z,5.52
2023-02-27T21:25:44.141Z,5.72
2023-02-27T21:31:33.310Z,5.56
2023-02-27T21:37:23.043Z,5.60
2023-02-27T21:43:13.294Z,5.48
2023-02-27T21:49:00.799Z,5.52
2023-02-27T21:54:47.775Z,5.60
2023-02-27T22:00:37.406Z,5.61
2023-02-27T22:06:28.995Z,5.47
2023-02-27T22:12:16.452Z,5.56
2023-02-27T22:18:13.914Z,5.61
2023-02-27T22:24:01.141Z,5.60
2023-02-27T22:29:48.187Z,5.59
2023-02-27T22:35:37.871Z,5.38
2023-02-27T22:41:33.287Z,5.36
2023-02-27T22:47:20.293Z,5.38
2023-02-27T22:53:07.013Z,5.38
2023-02-27T22:58:54.232Z,5.19
2023-02-27T23:04:40.960Z,5.12
2023-02-27T23:10:27.694Z,5.08
2023-02-27T23:16:15.166Z,5.01
2023-02-27T23:22:01.948Z,4.90
2023-02-27T23:27:48.615Z,4.89
2023-02-27T23:33:35.833Z,4.83
2023-02-27T23:39:22.519Z,4.60
2023-02-27T23:45:09.746Z,4.70
2023-02-27T23:50:58.363Z,4.67
2023-02-27T23:56:46.668Z,4.78
